Time;durP1;ratioP1;P1;durP2;ratioP2;P2;SDS_P1;SDS_P2;PMS_P1;PMS_P2;Temp;Humidity;BMP_temperature;BMP_pressure;BME280_temperature;BME280_humidity;BME280_pressure;Samples;Min_cycle;Max_cycle;Signal;HPM_P1;HPM_P2
2023/09/01 00:01:05;;;;;;;;;;;11.80;99.90;;;;;;5040851;28;19929;-86
2023/09/01 00:03:31;;;;;;;;;;;11.80;99.90;;;;;;5044848;28;19978;-85
2023/09/01 00:05:58;;;;;;;;;;;11.80;99.90;;;;;;5042878;28;19992;-87
2023/09/01 00:08:25;;;;;;;;;;;11.70;99.90;;;;;;5042867;28;19925;-85
2023/09/01 00:10:50;;;;;;;;;;;11.70;99.90;;;;;;5044144;28;19925;-86
2023/09/01 00:13:16;;;;;;;;;;;11.70;99.90;;;;;;5045170;28;19932;-86
2023/09/01 00:15:44;;;;;;;;;;;11.60;99.90;;;;;;5029024;28;19964;-86
2023/09/01 00:18:11;;;;;;;;;;;11.60;99.90;;;;;;5028647;28;19968;-85
2023/09/01 00:20:36;;;;;;;;;;;11.60;99.90;;;;;;5028504;28;20324;-86
2023/09/01 00:23:03;;;;;;;;;;;11.60;99.90;;;;;;5042727;28;20011;-85
2023/09/01 00:25:29;;;;;;;;;;;11.60;99.90;;;;;;5042007;28;20295;-86
2023/09/01 00:27:55;;;;;;;;;;;11.60;99.90;;;;;;5045279;28;19925;-86
2023/09/01 00:30:20;;;;;;;;;;;11.60;99.90;;;;;;5047585;28;20291;-85
2023/09/01 00:32:46;;;;;;;;;;;11.60;99.90;;;;;;5045452;28;19932;-85
2023/09/01 00:35:11;;;;;;;;;;;11.60;99.90;;;;;;5025602;28;20027;-87
2023/09/01 00:37:37;;;;;;;;;;;11.60;99.90;;;;;;5047254;28;19932;-85
2023/09/01 00:40:03;;;;;;;;;;;11.60;99.90;;;;;;5044594;28;19970;-85
2023/09/01 00:42:29;;;;;;;;;;;11.50;99.90;;;;;;5046715;28;19931;-85
2023/09/01 00:44:54;;;;;;;;;;;11.50;99.90;;;;;;5048114;28;21730;-85
2023/09/01 00:47:20;;;;;;;;;;;11.50;99.90;;;;;;5043672;28;19933;-86
2023/09/01 00:49:46;;;;;;;;;;;11.50;99.90;;;;;;5044947;28;19929;-86
2023/09/01 00:52:11;;;;;;;;;;;11.50;99.90;;;;;;5042098;28;19933;-86
2023/09/01 00:54:37;;;;;;;;;;;11.40;99.90;;;;;;5044087;28;20311;-85
2023/09/01 00:57:03;;;;;;;;;;;11.40;99.90;;;;;;5044859;28;20041;-86
2023/09/01 00:59:28;;;;;;;;;;;11.40;99.90;;;;;;5044054;28;19925;-85
2023/09/01 01:01:54;;;;;;;;;;;11.40;99.90;;;;;;5046424;28;19924;-86
2023/09/01 01:04:21;;;;;;;;;;;11.40;99.90;;;;;;5042854;28;19928;-86
2023/09/01 01:06:50;;;;;;;;;;;11.40;99.90;;;;;;5041854;28;21169;-88
2023/09/01 01:09:34;;;;;;;;;;;11.40;99.90;;;;;;5043272;28;19924;-86
2023/09/01 01:12:10;;;;;;;;;;;11.40;99.90;;;;;;5044737;28;19964;-85
2023/09/01 01:14:50;;;;;;;;;;;11.40;99.90;;;;;;5053452;28;20405;-85
2023/09/01 01:17:19;;;;;;;;;;;11.40;99.90;;;;;;5050752;28;20299;-86
2023/09/01 01:19:55;;;;;;;;;;;11.40;99.90;;;;;;5048803;28;19924;-85
2023/09/01 01:22:44;;;;;;;;;;;11.40;99.90;;;;;;5041833;28;19983;-86
2023/09/01 01:25:10;;;;;;;;;;;11.40;99.90;;;;;;5037158;28;19935;-86
2023/09/01 01:27:37;;;;;;;;;;;11.40;99.90;;;;;;5043935;28;20909;-86
2023/09/01 01:30:05;;;;;;;;;;;11.40;99.90;;;;;;5043558;28;19925;-86
2023/09/01 01:32:31;;;;;;;;;;;11.50;99.90;;;;;;5045548;28;19929;-86
2023/09/01 01:35:17;;;;;;;;;;;11.60;99.90;;;;;;5044812;28;19968;-86
2023/09/01 01:38:05;;;;;;;;;;;11.60;99.90;;;;;;5040888;28;19933;-86
2023/09/01 01:40:31;;;;;;;;;;;11.60;99.90;;;;;;5034917;28;19939;-85
2023/09/01 01:43:00;;;;;;;;;;;11.60;99.90;;;;;;5044985;28;19933;-85
2023/09/01 01:45:26;;;;;;;;;;;11.70;99.90;;;;;;5040826;28;19933;-87
2023/09/01 01:47:52;;;;;;;;;;;11.70;99.90;;;;;;5041882;28;19924;-86
2023/09/01 01:50:18;;;;;;;;;;;11.70;99.90;;;;;;5043965;28;19925;-86
2023/09/01 01:52:43;;;;;;;;;;;11.70;99.90;;;;;;5027501;28;20384;-85
2023/09/01 01:55:09;;;;;;;;;;;11.70;99.90;;;;;;5040415;28;20361;-85
2023/09/01 01:57:36;;;;;;;;;;;11.70;99.90;;;;;;5044366;28;19928;-85
2023/09/01 02:00:03;;;;;;;;;;;11.70;99.90;;;;;;5044028;28;20063;-85
2023/09/01 02:02:29;;;;;;;;;;;11.70;99.90;;;;;;5045361;28;19932;-84
2023/09/01 02:04:55;;;;;;;;;;;11.60;99.90;;;;;;5041084;28;19932;-85
2023/09/01 02:07:20;;;;;;;;;;;11.60;99.90;;;;;;5047359;28;20020;-85
2023/09/01 02:09:46;;;;;;;;;;;11.60;99.90;;;;;;5049536;28;19925;-85
2023/09/01 02:12:11;;;;;;;;;;;11.60;99.90;;;;;;5048147;28;19924;-85
2023/09/01 02:14:37;;;;;;;;;;;11.60;99.90;;;;;;5045891;28;19925;-85
2023/09/01 02:17:03;;;;;;;;;;;11.60;99.90;;;;;;5046897;28;19936;-86
2023/09/01 02:19:29;;;;;;;;;;;11.60;99.90;;;;;;5049248;28;19925;-86
2023/09/01 02:21:55;;;;;;;;;;;11.70;99.90;;;;;;5049036;28;19964;-85
2023/09/01 02:24:20;;;;;;;;;;;11.70;99.90;;;;;;5045817;28;21063;-85
2023/09/01 02:26:46;;;;;;;;;;;11.70;99.90;;;;;;5048472;28;20290;-86
2023/09/01 02:29:11;;;;;;;;;;;11.70;99.90;;;;;;5061262;28;19972;-86
2023/09/01 02:31:40;;;;;;;;;;;11.70;99.90;;;;;;5048817;28;20382;-86
2023/09/01 02:34:05;;;;;;;;;;;11.70;99.90;;;;;;5046506;28;20279;-86
2023/09/01 02:36:32;;;;;;;;;;;11.70;99.90;;;;;;5047944;28;19932;-87
2023/09/01 02:38:58;;;;;;;;;;;11.70;99.90;;;;;;5046575;28;19925;-85
2023/09/01 02:41:24;;;;;;;;;;;11.70;99.90;;;;;;5044571;28;19925;-85
2023/09/01 02:43:50;;;;;;;;;;;11.60;99.90;;;;;;5049242;28;20389;-85
2023/09/01 02:46:16;;;;;;;;;;;11.60;99.90;;;;;;5046723;28;19939;-87
2023/09/01 02:48:41;;;;;;;;;;;11.60;99.90;;;;;;5027380;28;20411;-85
2023/09/01 02:51:07;;;;;;;;;;;11.60;99.90;;;;;;5048691;28;19928;-85
2023/09/01 02:53:33;;;;;;;;;;;11.50;99.90;;;;;;5047706;28;19925;-85
2023/09/01 02:55:59;;;;;;;;;;;11.50;99.90;;;;;;5029666;28;20967;-85
2023/09/01 02:58:25;;;;;;;;;;;11.50;99.90;;;;;;5043776;28;20241;-86
2023/09/01 03:00:51;;;;;;;;;;;11.40;99.90;;;;;;5048072;28;19974;-86
2023/09/01 03:03:19;;;;;;;;;;;11.40;99.90;;;;;;5040823;28;19929;-86
2023/09/01 03:05:45;;;;;;;;;;;11.50;99.90;;;;;;5046947;28;19944;-87
2023/09/01 03:08:11;;;;;;;;;;;11.40;99.90;;;;;;5043656;28;20326;-85
2023/09/01 03:10:37;;;;;;;;;;;11.40;99.90;;;;;;5041465;28;19924;-85
2023/09/01 03:13:03;;;;;;;;;;;11.40;99.90;;;;;;5045155;28;19932;-86
2023/09/01 03:15:28;;;;;;;;;;;11.30;99.90;;;;;;5046394;28;19932;-85
2023/09/01 03:17:54;;;;;;;;;;;11.30;99.90;;;;;;5027879;28;19935;-86
2023/09/01 03:20:20;;;;;;;;;;;11.20;99.90;;;;;;5049268;28;20379;-85
2023/09/01 03:22:45;;;;;;;;;;;11.20;99.90;;;;;;5044175;28;19948;-84
2023/09/01 03:25:11;;;;;;;;;;;11.20;99.90;;;;;;5044618;28;19932;-85
2023/09/01 03:27:37;;;;;;;;;;;11.20;99.90;;;;;;5048134;28;19936;-86
2023/09/01 03:30:03;;;;;;;;;;;11.20;99.90;;;;;;5046632;28;19936;-85
2023/09/01 03:32:32;;;;;;;;;;;11.20;99.90;;;;;;5048283;28;19928;-85
2023/09/01 03:34:57;;;;;;;;;;;11.20;99.90;;;;;;5042443;28;20361;-85
2023/09/01 03:37:23;;;;;;;;;;;11.10;99.90;;;;;;5048868;28;19979;-85
2023/09/01 03:39:49;;;;;;;;;;;11.20;99.90;;;;;;5044749;28;19925;-86
2023/09/01 03:42:16;;;;;;;;;;;11.20;99.90;;;;;;5049657;28;19935;-86
2023/09/01 03:44:41;;;;;;;;;;;11.10;99.90;;;;;;5048914;28;20406;-85
2023/09/01 03:47:07;;;;;;;;;;;11.10;99.90;;;;;;5031473;28;19944;-85
2023/09/01 03:49:32;;;;;;;;;;;11.00;99.90;;;;;;5049088;28;20007;-85
2023/09/01 03:51:58;;;;;;;;;;;11.00;99.90;;;;;;5052196;28;20387;-85
2023/09/01 03:54:24;;;;;;;;;;;10.90;99.90;;;;;;5050724;28;19931;-85
2023/09/01 03:56:50;;;;;;;;;;;10.90;99.90;;;;;;5052170;28;19995;-85
2023/09/01 03:59:15;;;;;;;;;;;10.80;99.90;;;;;;5053208;28;19925;-85
2023/09/01 04:01:43;;;;;;;;;;;10.80;99.90;;;;;;5051057;28;20024;-85
2023/09/01 04:04:09;;;;;;;;;;;10.80;99.90;;;;;;5049108;28;20371;-85
2023/09/01 04:06:34;;;;;;;;;;;10.70;99.90;;;;;;5046609;28;19978;-85
2023/09/01 04:09:00;;;;;;;;;;;10.70;99.90;;;;;;5046799;28;19933;-85
2023/09/01 04:11:25;;;;;;;;;;;10.70;99.90;;;;;;5052295;28;19924;-86
2023/09/01 04:13:51;;;;;;;;;;;10.70;99.90;;;;;;5051458;28;19933;-85
2023/09/01 04:16:16;;;;;;;;;;;10.70;99.90;;;;;;5044061;28;20261;-85
2023/09/01 04:18:42;;;;;;;;;;;10.70;99.90;;;;;;5045362;28;19933;-85
2023/09/01 04:21:07;;;;;;;;;;;10.70;99.90;;;;;;5048086;28;19932;-85
2023/09/01 04:23:33;;;;;;;;;;;10.70;99.90;;;;;;5050913;28;19931;-85
2023/09/01 04:26:00;;;;;;;;;;;10.70;99.90;;;;;;5049417;28;19929;-85
2023/09/01 04:28:26;;;;;;;;;;;10.60;99.90;;;;;;5043589;28;20136;-87
2023/09/01 04:30:52;;;;;;;;;;;10.60;99.90;;;;;;5045367;28;20082;-87
2023/09/01 04:33:17;;;;;;;;;;;10.60;99.90;;;;;;5046226;28;19925;-85
2023/09/01 04:35:43;;;;;;;;;;;10.60;99.90;;;;;;5048563;28;19986;-86
2023/09/01 04:38:08;;;;;;;;;;;10.50;99.90;;;;;;5047593;28;20073;-87
2023/09/01 04:40:34;;;;;;;;;;;10.50;99.90;;;;;;5051627;28;19946;-86
2023/09/01 04:43:00;;;;;;;;;;;10.50;99.90;;;;;;5048308;28;20392;-86
2023/09/01 04:45:25;;;;;;;;;;;10.60;99.90;;;;;;5044092;28;19932;-85
2023/09/01 04:47:51;;;;;;;;;;;10.60;99.90;;;;;;5047137;28;20062;-85
2023/09/01 04:50:17;;;;;;;;;;;10.70;99.90;;;;;;5045094;28;19936;-86
2023/09/01 04:52:43;;;;;;;;;;;10.70;99.90;;;;;;5048002;28;20011;-86
2023/09/01 04:55:08;;;;;;;;;;;10.70;99.90;;;;;;5048155;28;19929;-85
2023/09/01 04:57:35;;;;;;;;;;;10.60;99.90;;;;;;5044854;28;19925;-85
2023/09/01 05:00:02;;;;;;;;;;;10.60;99.90;;;;;;5044066;28;19933;-86
2023/09/01 05:02:28;;;;;;;;;;;10.60;99.90;;;;;;5045615;28;20016;-85
2023/09/01 05:04:53;;;;;;;;;;;10.60;99.90;;;;;;5044419;28;20015;-85
2023/09/01 05:07:19;;;;;;;;;;;10.60;99.90;;;;;;5042027;28;19925;-85
2023/09/01 05:09:44;;;;;;;;;;;10.60;99.90;;;;;;5046362;28;19935;-86
2023/09/01 05:12:10;;;;;;;;;;;10.60;99.90;;;;;;5042692;28;20319;-86
2023/09/01 05:14:35;;;;;;;;;;;10.60;99.90;;;;;;5043891;28;20012;-85
2023/09/01 05:17:01;;;;;;;;;;;10.70;99.90;;;;;;5046688;28;19925;-85
2023/09/01 05:19:27;;;;;;;;;;;10.70;99.90;;;;;;5049379;28;20545;-85
2023/09/01 05:21:52;;;;;;;;;;;10.80;99.90;;;;;;5050644;28;19929;-85
2023/09/01 05:24:18;;;;;;;;;;;10.80;99.90;;;;;;5048464;28;19935;-85
2023/09/01 05:26:43;;;;;;;;;;;10.90;99.90;;;;;;5048402;28;19987;-85
2023/09/01 05:29:09;;;;;;;;;;;10.90;99.90;;;;;;5047769;28;19974;-85
2023/09/01 05:31:35;;;;;;;;;;;11.00;99.90;;;;;;5045901;28;20445;-84
2023/09/01 05:34:00;;;;;;;;;;;11.10;99.90;;;;;;5039902;28;19933;-85
2023/09/01 05:36:26;;;;;;;;;;;11.20;99.90;;;;;;5048068;28;20015;-84
2023/09/01 05:38:51;;;;;;;;;;;11.20;99.90;;;;;;5048118;28;19932;-85
2023/09/01 05:41:17;;;;;;;;;;;11.20;99.90;;;;;;5048321;28;19943;-85
2023/09/01 05:43:43;;;;;;;;;;;11.30;99.90;;;;;;5052072;28;19925;-85
2023/09/01 05:46:08;;;;;;;;;;;11.30;99.90;;;;;;5049586;28;19925;-85
2023/09/01 05:48:36;;;;;;;;;;;11.40;99.90;;;;;;5046815;28;19928;-84
2023/09/01 05:51:01;;;;;;;;;;;11.50;99.90;;;;;;5049204;28;20144;-85
2023/09/01 05:53:27;;;;;;;;;;;11.50;99.90;;;;;;5047857;28;20360;-86
2023/09/01 05:55:53;;;;;;;;;;;11.60;99.90;;;;;;5032603;28;19983;-86
2023/09/01 05:58:18;;;;;;;;;;;11.60;99.90;;;;;;5048609;28;19972;-85
2023/09/01 06:00:44;;;;;;;;;;;11.70;99.90;;;;;;5046779;28;20453;-85
2023/09/01 06:03:10;;;;;;;;;;;11.80;99.90;;;;;;5052625;28;19989;-85
2023/09/01 06:05:35;;;;;;;;;;;11.90;99.90;;;;;;5050669;28;20252;-85
2023/09/01 06:08:02;;;;;;;;;;;12.00;99.90;;;;;;5045432;28;19953;-85
2023/09/01 06:10:27;;;;;;;;;;;12.10;99.90;;;;;;5045545;28;19940;-85
2023/09/01 06:12:53;;;;;;;;;;;12.20;99.90;;;;;;5045077;28;19944;-87
2023/09/01 06:15:19;;;;;;;;;;;12.30;99.90;;;;;;5051156;28;19932;-86
2023/09/01 06:17:44;;;;;;;;;;;12.30;99.90;;;;;;5051446;28;20368;-86
2023/09/01 06:20:10;;;;;;;;;;;12.40;99.90;;;;;;5047863;28;19952;-86
2023/09/01 06:22:36;;;;;;;;;;;12.50;99.90;;;;;;5048146;28;19928;-85
2023/09/01 06:25:03;;;;;;;;;;;12.50;99.90;;;;;;5048902;28;20067;-87
2023/09/01 06:27:28;;;;;;;;;;;12.60;99.90;;;;;;5054486;28;20434;-85
2023/09/01 06:29:56;;;;;;;;;;;12.60;99.90;;;;;;5050130;28;19929;-86
2023/09/01 06:32:22;;;;;;;;;;;12.70;99.90;;;;;;5048801;28;19932;-86
2023/09/01 06:34:48;;;;;;;;;;;12.70;99.90;;;;;;5047569;28;20007;-85
2023/09/01 06:37:13;;;;;;;;;;;12.70;99.90;;;;;;5047944;28;19935;-85
2023/09/01 06:39:39;;;;;;;;;;;12.80;99.90;;;;;;5050481;28;19951;-84
2023/09/01 06:42:06;;;;;;;;;;;12.80;99.90;;;;;;5045815;28;19929;-84
2023/09/01 06:44:32;;;;;;;;;;;12.90;99.90;;;;;;5031195;28;19929;-86
2023/09/01 06:46:57;;;;;;;;;;;13.00;99.90;;;;;;5050264;28;20283;-85
2023/09/01 06:49:23;;;;;;;;;;;13.10;99.90;;;;;;5047670;28;19983;-84
2023/09/01 06:51:48;;;;;;;;;;;13.20;99.90;;;;;;5046207;28;19929;-85
2023/09/01 06:54:14;;;;;;;;;;;13.40;99.90;;;;;;5048112;28;19929;-87
2023/09/01 06:56:40;;;;;;;;;;;13.50;99.90;;;;;;5046845;28;19936;-86
2023/09/01 06:59:05;;;;;;;;;;;13.60;99.90;;;;;;5050332;28;19935;-85
2023/09/01 07:01:31;;;;;;;;;;;13.70;99.90;;;;;;5050648;28;20535;-89
2023/09/01 07:03:56;;;;;;;;;;;13.80;99.90;;;;;;5049934;28;19933;-86
2023/09/01 07:06:22;;;;;;;;;;;13.90;99.90;;;;;;5033031;28;19925;-85
2023/09/01 07:08:47;;;;;;;;;;;14.00;99.90;;;;;;5051974;28;19925;-85
2023/09/01 07:11:14;;;;;;;;;;;14.20;99.90;;;;;;5049116;28;19948;-87
2023/09/01 07:13:40;;;;;;;;;;;14.30;99.90;;;;;;5032167;28;19937;-85
2023/09/01 07:16:06;;;;;;;;;;;14.50;99.90;;;;;;5049520;28;19932;-85
2023/09/01 07:18:32;;;;;;;;;;;14.70;99.90;;;;;;5051886;28;19925;-87
2023/09/01 07:20:58;;;;;;;;;;;14.90;99.90;;;;;;5051050;28;19974;-85
2023/09/01 07:23:24;;;;;;;;;;;15.00;99.90;;;;;;5054378;28;20350;-85
2023/09/01 07:25:51;;;;;;;;;;;15.00;99.90;;;;;;5049853;28;19933;-85
2023/09/01 07:28:17;;;;;;;;;;;15.00;99.90;;;;;;5048908;28;19929;-85
2023/09/01 07:30:42;;;;;;;;;;;15.00;99.90;;;;;;5036331;28;19982;-85
2023/09/01 07:33:08;;;;;;;;;;;15.00;99.90;;;;;;5050000;28;19932;-85
2023/09/01 07:35:33;;;;;;;;;;;15.00;99.90;;;;;;5047207;28;19935;-86
2023/09/01 07:37:59;;;;;;;;;;;15.00;99.90;;;;;;5043863;28;19929;-86
2023/09/01 07:40:25;;;;;;;;;;;15.10;99.90;;;;;;5045255;28;19933;-86
2023/09/01 07:42:50;;;;;;;;;;;15.10;99.90;;;;;;5044568;28;20319;-86
2023/09/01 07:45:16;;;;;;;;;;;15.10;99.90;;;;;;5017768;28;20387;-85
2023/09/01 07:47:42;;;;;;;;;;;15.10;99.90;;;;;;5047099;28;19931;-87
2023/09/01 07:50:08;;;;;;;;;;;15.10;99.90;;;;;;5048404;28;19929;-88
2023/09/01 07:52:34;;;;;;;;;;;15.10;99.90;;;;;;5047527;28;19928;-86
2023/09/01 07:55:00;;;;;;;;;;;15.10;99.90;;;;;;5048665;28;19933;-85
2023/09/01 07:57:25;;;;;;;;;;;15.20;99.90;;;;;;5050937;28;19931;-86
2023/09/01 07:59:51;;;;;;;;;;;15.30;99.90;;;;;;5055264;28;19947;-86
2023/09/01 08:02:16;;;;;;;;;;;15.30;99.90;;;;;;5054717;28;19931;-87
2023/09/01 08:04:43;;;;;;;;;;;15.40;99.90;;;;;;5046568;28;19929;-87
2023/09/01 08:07:08;;;;;;;;;;;15.50;99.90;;;;;;5048953;28;20338;-90
2023/09/01 08:09:34;;;;;;;;;;;15.50;99.90;;;;;;5046460;28;19933;-85
2023/09/01 08:11:59;;;;;;;;;;;15.70;99.90;;;;;;5048763;28;19936;-85
2023/09/01 08:14:25;;;;;;;;;;;15.80;99.90;;;;;;5052350;28;19925;-85
2023/09/01 08:16:50;;;;;;;;;;;15.90;99.90;;;;;;5043566;28;20019;-85
2023/09/01 08:19:16;;;;;;;;;;;16.10;99.90;;;;;;5047104;28;19932;-85
2023/09/01 08:21:41;;;;;;;;;;;16.10;99.90;;;;;;5048086;28;20279;-86
2023/09/01 08:24:07;;;;;;;;;;;16.20;99.90;;;;;;5049658;28;19936;-86
2023/09/01 08:26:33;;;;;;;;;;;16.30;99.90;;;;;;5045340;28;20429;-86
2023/09/01 08:28:59;;;;;;;;;;;16.40;99.90;;;;;;5050233;28;20363;-85
2023/09/01 08:31:25;;;;;;;;;;;16.50;99.90;;;;;;5045978;28;19967;-85
2023/09/01 08:33:51;;;;;;;;;;;16.60;99.90;;;;;;5045175;28;19947;-85
2023/09/01 08:36:17;;;;;;;;;;;16.70;99.90;;;;;;5049434;28;19986;-86
2023/09/01 08:38:43;;;;;;;;;;;16.90;99.90;;;;;;5038232;28;20003;-86
2023/09/01 08:41:09;;;;;;;;;;;17.00;99.90;;;;;;5043625;28;19947;-85
2023/09/01 08:43:40;;;;;;;;;;;17.10;99.90;;;;;;5052235;28;19925;-85
2023/09/01 08:46:07;;;;;;;;;;;17.20;99.90;;;;;;5050600;28;19932;-86
2023/09/01 08:48:33;;;;;;;;;;;17.30;99.90;;;;;;5050846;28;19956;-85
2023/09/01 08:50:58;;;;;;;;;;;17.40;99.90;;;;;;5051190;28;19925;-85
2023/09/01 08:53:25;;;;;;;;;;;17.50;99.90;;;;;;5049964;28;20391;-89
2023/09/01 08:55:51;;;;;;;;;;;17.50;99.90;;;;;;5049995;28;19928;-87
2023/09/01 08:58:21;;;;;;;;;;;17.50;99.90;;;;;;5033316;28;19977;-87
2023/09/01 09:00:47;;;;;;;;;;;17.60;99.90;;;;;;5050078;28;19925;-87
2023/09/01 09:03:13;;;;;;;;;;;17.60;99.90;;;;;;5050240;28;19978;-87
2023/09/01 09:05:39;;;;;;;;;;;17.70;99.90;;;;;;5048128;28;19928;-86
2023/09/01 09:08:06;;;;;;;;;;;17.80;99.90;;;;;;5045396;28;20337;-86
2023/09/01 09:10:32;;;;;;;;;;;17.90;99.90;;;;;;5050403;28;19929;-87
2023/09/01 09:12:58;;;;;;;;;;;18.10;99.90;;;;;;5047994;28;19932;-86
2023/09/01 09:15:24;;;;;;;;;;;18.30;99.90;;;;;;5046402;28;19925;-86
2023/09/01 09:17:49;;;;;;;;;;;18.40;99.90;;;;;;5042917;28;19939;-86
2023/09/01 09:20:17;;;;;;;;;;;18.60;99.90;;;;;;5049910;28;19998;-86
2023/09/01 09:22:49;;;;;;;;;;;18.80;99.90;;;;;;5050007;28;19987;-89
2023/09/01 09:25:23;;;;;;;;;;;18.90;99.90;;;;;;5048207;28;19925;-86
2023/09/01 09:27:49;;;;;;;;;;;19.00;99.90;;;;;;5049412;28;19925;-85
2023/09/01 09:30:14;;;;;;;;;;;18.90;99.90;;;;;;5046881;28;19928;-86
2023/09/01 09:32:40;;;;;;;;;;;19.10;99.90;;;;;;5049918;28;20425;-85
2023/09/01 09:35:08;;;;;;;;;;;19.10;99.90;;;;;;5046807;28;19975;-85
2023/09/01 09:37:35;;;;;;;;;;;19.20;99.90;;;;;;5033366;28;20253;-86
2023/09/01 09:40:10;;;;;;;;;;;19.30;99.90;;;;;;5050744;28;19939;-85
2023/09/01 09:42:38;;;;;;;;;;;19.30;99.90;;;;;;5047633;28;19967;-87
2023/09/01 09:45:04;;;;;;;;;;;19.30;99.90;;;;;;5040041;28;19925;-87
2023/09/01 09:47:31;;;;;;;;;;;19.30;99.90;;;;;;5049230;28;20023;-85
2023/09/01 09:49:57;;;;;;;;;;;19.30;99.90;;;;;;5049506;28;20406;-87
2023/09/01 09:52:24;;;;;;;;;;;19.30;99.90;;;;;;5049309;28;20410;-86
2023/09/01 09:54:51;;;;;;;;;;;19.20;99.90;;;;;;5049225;28;20291;-86
2023/09/01 09:57:18;;;;;;;;;;;19.20;99.90;;;;;;5049716;28;19928;-86
2023/09/01 09:59:57;;;;;;;;;;;19.20;99.90;;;;;;5051501;28;19929;-86
2023/09/01 10:02:26;;;;;;;;;;;19.20;99.90;;;;;;5050933;28;19925;-85
2023/09/01 10:04:53;;;;;;;;;;;19.10;99.90;;;;;;5049066;28;19926;-86
2023/09/01 10:07:19;;;;;;;;;;;19.00;99.90;;;;;;5050530;28;19928;-86
2023/09/01 10:09:45;;;;;;;;;;;18.90;99.90;;;;;;5044557;28;19929;-86
2023/09/01 10:12:11;;;;;;;;;;;18.90;99.90;;;;;;5039121;28;20008;-87
2023/09/01 10:14:39;;;;;;;;;;;18.90;99.90;;;;;;5051026;28;20421;-86
2023/09/01 10:17:05;;;;;;;;;;;18.90;99.90;;;;;;5048237;28;19924;-86
2023/09/01 10:19:30;;;;;;;;;;;18.90;99.90;;;;;;5049468;28;19931;-86
2023/09/01 10:21:56;;;;;;;;;;;19.00;99.90;;;;;;5047323;28;19924;-86
2023/09/01 10:24:22;;;;;;;;;;;19.00;99.90;;;;;;5053920;28;19978;-87
2023/09/01 10:27:07;;;;;;;;;;;19.00;99.90;;;;;;5049426;28;19925;-86
2023/09/01 10:29:34;;;;;;;;;;;19.00;99.90;;;;;;5046151;28;19994;-86
2023/09/01 10:32:18;;;;;;;;;;;19.00;99.90;;;;;;5047660;28;19929;-85
2023/09/01 10:34:52;;;;;;;;;;;18.90;99.90;;;;;;5046681;28;19925;-86
2023/09/01 10:37:30;;;;;;;;;;;18.80;99.90;;;;;;5050955;28;19944;-84
2023/09/01 10:39:58;;;;;;;;;;;18.70;99.90;;;;;;5053829;28;20027;-88
2023/09/01 10:42:48;;;;;;;;;;;18.60;99.90;;;;;;5049248;28;19970;-85
2023/09/01 10:45:14;;;;;;;;;;;18.50;99.90;;;;;;5049802;28;20367;-84
2023/09/01 10:47:39;;;;;;;;;;;18.40;99.90;;;;;;5054256;28;19929;-84
2023/09/01 10:50:06;;;;;;;;;;;18.40;99.90;;;;;;5054705;28;19925;-84
2023/09/01 10:52:32;;;;;;;;;;;18.40;99.90;;;;;;5054910;28;19975;-84
2023/09/01 10:54:57;;;;;;;;;;;18.40;99.90;;;;;;5053803;28;19931;-84
2023/09/01 10:57:37;;;;;;;;;;;18.30;99.90;;;;;;5054493;28;19928;-84
2023/09/01 11:00:22;;;;;;;;;;;18.30;99.90;;;;;;5054741;28;19929;-85
2023/09/01 11:02:48;;;;;;;;;;;18.30;99.90;;;;;;5054091;28;19975;-85
2023/09/01 11:05:33;;;;;;;;;;;18.30;99.90;;;;;;5053533;28;19925;-85
2023/09/01 11:08:14;;;;;;;;;;;18.30;99.90;;;;;;5036715;28;19928;-85
2023/09/01 11:10:39;;;;;;;;;;;18.30;99.90;;;;;;5052933;28;19933;-85
2023/09/01 11:13:14;;;;;;;;;;;18.30;99.90;;;;;;5053754;28;19925;-85
2023/09/01 11:15:43;;;;;;;;;;;18.20;99.90;;;;;;5052078;28;19935;-85
2023/09/01 11:18:14;;;;;;;;;;;18.30;99.90;;;;;;5054625;28;19925;-85
2023/09/01 11:20:40;;;;;;;;;;;18.30;99.90;;;;;;5054355;28;20346;-85
2023/09/01 11:23:06;;;;;;;;;;;18.30;99.90;;;;;;5054575;28;19928;-85
2023/09/01 11:25:32;;;;;;;;;;;18.30;99.90;;;;;;5052712;28;19932;-85
2023/09/01 11:27:58;;;;;;;;;;;18.30;99.90;;;;;;5050737;28;19951;-85
2023/09/01 11:30:23;;;;;;;;;;;18.30;99.90;;;;;;5056284;28;20388;-86
2023/09/01 11:32:50;;;;;;;;;;;18.40;99.90;;;;;;5055717;28;19925;-86
2023/09/01 11:35:41;;;;;;;;;;;18.40;99.90;;;;;;5057666;28;19948;-84
2023/09/01 11:38:16;;;;;;;;;;;18.60;99.90;;;;;;5049801;28;19925;-87
2023/09/01 11:40:41;;;;;;;;;;;18.70;99.90;;;;;;5051050;28;19936;-87
2023/09/01 11:43:08;;;;;;;;;;;18.70;99.90;;;;;;5036203;28;19925;-87
2023/09/01 11:45:34;;;;;;;;;;;18.70;99.90;;;;;;5052815;28;20341;-86
2023/09/01 11:47:59;;;;;;;;;;;18.70;99.90;;;;;;5052710;28;19929;-87
2023/09/01 11:50:25;;;;;;;;;;;18.70;99.90;;;;;;5053528;28;19947;-86
2023/09/01 11:52:51;;;;;;;;;;;18.60;99.90;;;;;;5052768;28;19931;-86
2023/09/01 11:55:30;;;;;;;;;;;18.70;99.90;;;;;;5053873;28;20420;-86
2023/09/01 11:57:56;;;;;;;;;;;18.70;99.90;;;;;;5050242;28;19929;-87
2023/09/01 12:00:32;;;;;;;;;;;18.90;99.90;;;;;;5050821;28;20399;-85
2023/09/01 12:02:58;;;;;;;;;;;19.10;99.90;;;;;;5044560;28;19929;-85
2023/09/01 12:05:30;;;;;;;;;;;19.40;99.90;;;;;;5052987;28;20445;-85
2023/09/01 12:07:58;;;;;;;;;;;19.60;99.90;;;;;;5052546;28;19925;-90
2023/09/01 12:10:24;;;;;;;;;;;19.70;99.90;;;;;;5048069;28;20368;-85
2023/09/01 12:12:50;;;;;;;;;;;19.70;99.90;;;;;;5051400;28;19929;-85
2023/09/01 12:15:15;;;;;;;;;;;19.80;99.90;;;;;;5052983;28;19925;-86
2023/09/01 12:17:41;;;;;;;;;;;19.90;99.90;;;;;;5053465;28;20008;-85
2023/09/01 12:20:07;;;;;;;;;;;19.80;99.90;;;;;;5034924;28;19924;-85
2023/09/01 12:23:10;;;;;;;;;;;19.80;99.90;;;;;;5045444;28;19931;-86
2023/09/01 12:25:55;;;;;;;;;;;;;;;;;;;;;
2023/09/01 12:28:21;;;;;;;;;;;19.90;99.90;;;;;;5043967;28;19929;-81
2023/09/01 12:30:47;;;;;;;;;;;19.90;99.90;;;;;;5054141;28;19925;-78
2023/09/01 12:33:12;;;;;;;;;;;20.00;99.90;;;;;;5054692;28;19924;-80
2023/09/01 12:35:39;;;;;;;;;;;20.00;99.90;;;;;;5054239;28;20318;-82
2023/09/01 12:38:05;;;;;;;;;;;20.00;99.90;;;;;;5052852;28;20303;-78
2023/09/01 12:40:30;;;;;;;;;;;20.10;99.90;;;;;;5053695;28;20027;-78
2023/09/01 12:42:56;;;;;;;;;;;20.10;99.90;;;;;;5054334;28;19925;-81
2023/09/01 12:45:21;;;;;;;;;;;20.20;99.90;;;;;;5052623;28;19987;-80
2023/09/01 12:47:47;;;;;;;;;;;20.30;99.90;;;;;;5054180;28;19932;-81
2023/09/01 12:50:12;;;;;;;;;;;20.40;99.90;;;;;;5054398;28;20414;-80
2023/09/01 12:52:38;;;;;;;;;;;20.30;99.90;;;;;;5052379;28;19925;-80
2023/09/01 12:55:04;;;;;;;;;;;20.40;99.90;;;;;;5053553;28;19972;-78
2023/09/01 12:57:29;;;;;;;;;;;20.50;99.90;;;;;;5053508;28;19940;-78
2023/09/01 12:59:55;;;;;;;;;;;20.70;99.90;;;;;;5053901;28;19924;-78
2023/09/01 13:02:21;;;;;;;;;;;20.70;99.90;;;;;;5036000;28;20015;-81
2023/09/01 13:04:46;;;;;;;;;;;20.70;99.90;;;;;;5053490;28;19925;-78
2023/09/01 13:07:12;;;;;;;;;;;20.70;99.90;;;;;;5054395;28;20019;-81
2023/09/01 13:09:37;;;;;;;;;;;20.70;99.90;;;;;;5036111;28;19928;-79
2023/09/01 13:12:03;;;;;;;;;;;20.70;99.90;;;;;;5053562;28;19924;-79
2023/09/01 13:14:29;;;;;;;;;;;20.60;99.90;;;;;;5053349;28;20364;-79
2023/09/01 13:16:54;;;;;;;;;;;20.60;99.90;;;;;;5035757;28;20384;-82
2023/09/01 13:19:20;;;;;;;;;;;20.60;99.90;;;;;;5054493;28;19929;-81
2023/09/01 13:21:45;;;;;;;;;;;20.60;99.90;;;;;;5054292;28;20264;-82
2023/09/01 13:24:11;;;;;;;;;;;20.60;99.90;;;;;;5053643;28;20020;-82
2023/09/01 13:26:37;;;;;;;;;;;20.60;99.90;;;;;;5036819;28;19925;-81
2023/09/01 13:29:02;;;;;;;;;;;20.50;99.90;;;;;;5019311;28;20023;-82
2023/09/01 13:31:28;;;;;;;;;;;20.50;99.90;;;;;;5053847;28;19951;-79
2023/09/01 13:33:54;;;;;;;;;;;20.50;99.90;;;;;;5053749;28;20364;-79
2023/09/01 13:36:19;;;;;;;;;;;20.40;99.90;;;;;;5053059;28;20280;-79
2023/09/01 13:38:45;;;;;;;;;;;20.20;99.90;;;;;;5053474;28;19939;-79
2023/09/01 13:41:11;;;;;;;;;;;20.00;99.90;;;;;;5053526;28;19928;-80
2023/09/01 13:43:37;;;;;;;;;;;20.00;99.90;;;;;;5053445;28;19924;-80
2023/09/01 13:46:31;;;;;;;;;;;20.00;99.90;;;;;;5053373;28;19962;-80
2023/09/01 13:48:57;;;;;;;;;;;20.00;99.90;;;;;;5050559;28;20023;-79
2023/09/01 13:51:27;;;;;;;;;;;20.10;99.90;;;;;;5054060;28;19931;-79
2023/09/01 13:53:54;;;;;;;;;;;20.10;99.90;;;;;;5053360;28;20027;-79
2023/09/01 13:56:19;;;;;;;;;;;20.10;99.90;;;;;;5054958;28;20319;-80
2023/09/01 13:58:45;;;;;;;;;;;20.20;99.90;;;;;;5056820;28;19925;-80
2023/09/01 14:01:11;;;;;;;;;;;20.20;99.90;;;;;;5040399;28;19928;-80
2023/09/01 14:03:38;;;;;;;;;;;20.20;99.90;;;;;;5057760;28;20015;-89
2023/09/01 14:06:03;;;;;;;;;;;20.20;99.90;;;;;;5039344;28;19925;-81
2023/09/01 14:08:29;;;;;;;;;;;20.20;99.90;;;;;;5057315;28;19925;-82
2023/09/01 14:10:55;;;;;;;;;;;20.30;99.90;;;;;;5057050;28;19925;-81
2023/09/01 14:13:21;;;;;;;;;;;20.30;99.90;;;;;;5057671;28;19935;-82
2023/09/01 14:15:47;;;;;;;;;;;20.30;99.90;;;;;;5056888;28;20012;-80
2023/09/01 14:18:13;;;;;;;;;;;20.30;99.90;;;;;;5056864;28;19939;-80